Alkor — DBND — position and weather

sailwx.info

Track history (hours):
 
Tides and Currents Weather Stations Pressure Air Temp Water Temp Dewpoint Dewpoint Depression Visibility Wind Speed Wind Dir Waves Ship Positions

Oceanographic research ship Alkor (Germany)

Ship's website: http://www.briese.de/

Detailed information on ship capabilities available from University of Delaware's Ocean Information Center.

Last reported at 2020-Mar-27 05:59 UTC. Time now 2020-Mar-29 16:02 UTC.
Position N 54°20' E 010°09'.

Length 55 m; draft 4.2 m.

Type: Ship. MMSI: 211216512.

Date/timePositionNaut miles runAvg speedWind from/ knotsBaromVisibWave heightAir tempDewpointWater temp
2020-Mar-27 05:59N 54°20' E 010°09'0 0.0
2020-Mar-27 03:29N 54°20' E 010°09'0 0.0
2020-Mar-26 21:29N 54°20' E 010°09'0 0.0
2020-Mar-26 20:59N 54°20' E 010°09'0 0.0
2020-Mar-26 17:53N 54°20' E 010°09'0 0.0
2020-Mar-26 17:26N 54°20' E 010°09'6 2.3
2020-Mar-26 15:00N 54°21' E 009°59'11 7.3
2020-Mar-26 13:31N 54°18' E 009°41'14 5.6
2020-Mar-26 11:01N 54°09' E 009°22'8 8.3
2020-Mar-26 10:00N 54°01' E 009°18'4 8.2
2020-Mar-26 09:31N 53°58' E 009°15'4 2.4
2020-Mar-26 08:01N 53°55' E 009°11'2 3.9
2020-Mar-26 07:30N 53°54' E 009°09'2 3.2
2020-Mar-26 07:00N 53°53' E 009°06'4 7.1
2020-Mar-26 06:31N 53°51' E 009°01'3 6.9
2020-Mar-26 06:01N 53°51' E 008°55'3 6.9
2020-Mar-26 05:30N 53°50' E 008°49'7 7.3
2020-Mar-26 04:30N 53°55' E 008°40'8 8.4
2020-Mar-26 03:31N 53°59' E 008°27'15 3.4
2020-Mar-25 23:01N 53°48' E 008°08'7 2.8
2020-Mar-25 20:30N 53°43' E 008°16'5010.0
2020-Mar-25 15:31N 53°44' E 006°52'13 4.7
2020-Mar-25 12:41N 53°33' E 006°41'33 3.0
2020-Mar-25 01:30N 53°59' E 007°16'4 8.3
2020-Mar-25 01:00N 53°60' E 007°23'4 8.3
2020-Mar-25 00:30N 54°01' E 007°29'12 8.1
2020-Mar-24 23:00N 54°02' E 007°50'11 7.4
2020-Mar-24 21:30N 54°01' E 008°09'6 3.1
2020-Mar-24 19:43N 54°03' E 008°18'0 2.3
2020-Mar-24 19:30N 54°03' E 008°17'1 0.3
2020-Mar-24 15:27N 54°04' E 008°18'5 3.5
2020-Mar-24 14:00N 54°00' E 008°22'510.6
2020-Mar-24 13:31N 53°59' E 008°31'1 1.8
2020-Mar-24 13:00N 53°59' E 008°29'15 3.3
2020-Mar-24 08:30N 54°05' E 008°06'1 1.3
2020-Mar-24 08:00N 54°05' E 008°05'0 0.2
2020-Mar-24 07:30N 54°05' E 008°05'5 2.6
2020-Mar-24 05:30N 54°05' E 008°14'36 2.2
2020-Mar-23 13:30N 53°53' E 009°11'4 7.8
2020-Mar-23 13:00N 53°52' E 009°17'1 0.6
2020-Mar-23 11:30N 53°52' E 009°16'0 0.8
2020-Mar-23 11:00N 53°52' E 009°16'0 0.2
2020-Mar-23 09:30N 53°52' E 009°17'15 9.7
2020-Mar-23 08:00N 53°50' E 008°52'5 2.1
2020-Mar-23 05:29N 53°51' E 008°43'0 0.0
2020-Mar-23 04:29N 53°51' E 008°43'0 0.0
2020-Mar-23 02:29N 53°51' E 008°43'0 0.0
2020-Mar-23 01:29N 53°51' E 008°43'0 0.0
2020-Mar-22 23:59N 53°51' E 008°43'0 0.0
2020-Mar-22 22:29N 53°51' E 008°43'0 0.0
2020-Mar-22 21:59N 53°51' E 008°43'0 0.0
2020-Mar-22 19:59N 53°51' E 008°43'0 0.0
2020-Mar-22 19:28N 53°51' E 008°43'0 0.0
2020-Mar-22 18:29N 53°51' E 008°43'0 0.0
2020-Mar-22 17:28N 53°51' E 008°43'0 0.0
2020-Mar-22 15:58N 53°51' E 008°43'0 0.0
2020-Mar-22 11:58N 53°51' E 008°43'0 0.0
2020-Mar-22 08:29N 53°51' E 008°43'0 0.0
2020-Mar-22 05:58N 53°51' E 008°43'0 0.0
2020-Mar-22 04:58N 53°51' E 008°43'0 0.0
2020-Mar-22 03:28N 53°51' E 008°43'0 0.0
2020-Mar-22 02:28N 53°51' E 008°43'0 0.0
2020-Mar-21 23:29N 53°51' E 008°43'0 0.0
2020-Mar-21 22:28N 53°51' E 008°43'0 0.0
2020-Mar-21 20:28N 53°51' E 008°43'0 0.0
2020-Mar-21 19:28N 53°51' E 008°43'0 0.0
2020-Mar-21 17:58N 53°51' E 008°43'0 0.0
2020-Mar-21 17:28N 53°51' E 008°43'0 0.0
2020-Mar-21 16:28N 53°51' E 008°43'1 0.1
2020-Mar-21 09:24N 53°52' E 008°43'48 7.5
2020-Mar-21 03:00N 53°52' E 007°21'3 6.0
2020-Mar-21 02:30N 53°51' E 007°16'3 5.6
2020-Mar-21 01:59N 53°51' E 007°11'3 5.6
2020-Mar-21 01:30N 53°50' E 007°07'3 5.5
2020-Mar-21 01:00N 53°49' E 007°03'5 5.5
2020-Mar-21 00:00N 53°48' E 006°54'5 5.5
2020-Mar-20 23:00N 53°47' E 006°45'62 4.3
2020-Mar-20 08:40N 53°29' E 005°05'211.0
2020-Mar-20 08:26N 53°28' E 005°01'6511.4
2020-Mar-20 02:43N 52°39' E 003°50'712.2
2020-Mar-20 02:10N 52°35' E 003°40'2712.4
2020-Mar-19 23:57N 52°08' E 003°27'1212.8
2020-Mar-19 23:00N 51°56' E 003°24'1112.7
2020-Mar-19 22:10N 51°47' E 003°17'21 9.7
2020-Mar-19 19:59N 51°28' E 003°00'1 2.1
2020-Mar-19 19:30N 51°27' E 003°01'1 0.6
2020-Mar-19 18:30N 51°27' E 003°01'1 0.4
2020-Mar-19 16:29N 51°26' E 002°60'15 7.0
2020-Mar-19 14:25N 51°22' E 002°37'511.4
2020-Mar-19 13:59N 51°22' E 002°30'511.5
2020-Mar-19 13:30N 51°20' E 002°21'28 7.9
2020-Mar-19 10:00N 51°32' E 001°42'1 2.0
2020-Mar-19 09:30N 51°32' E 001°41'2 2.0
2020-Mar-19 08:30N 51°30' E 001°41'2 0.8
2020-Mar-19 06:30N 51°29' E 001°43'1111.2
2020-Mar-19 05:30N 51°25' E 002°00'611.5
2020-Mar-19 05:00N 51°23' E 002°08'5 8.6
2020-Mar-19 04:28N 51°18' E 002°07'1010.1
2020-Mar-19 03:30N 51°12' E 001°56'1010.1
2020-Mar-19 02:30N 51°05' E 001°43'14 9.2
2020-Mar-19 01:00N 50°54' E 001°30'11 9.8
2020-Mar-18 23:51N 50°43' E 001°25'38 9.9
2020-Mar-18 19:59N 50°23' E 000°34'1710.6
2020-Mar-18 18:24N 50°18' E 000°09'5010.3
2020-Mar-18 13:30N 49°29' W 000°12'7 7.0
2020-Mar-18 12:30N 49°24' W 000°04'0 0.2
2020-Mar-18 12:00N 49°24' W 000°04'0 0.2
2020-Mar-18 10:00N 49°24' W 000°05'1 1.1
2020-Mar-18 09:30N 49°24' W 000°06'1 1.4
2020-Mar-18 09:00N 49°24' W 000°05'0 0.0
2020-Mar-18 08:30N 49°24' W 000°05'9 1.9
2020-Mar-18 03:30N 49°28' W 000°17'2 1.6
2020-Mar-18 02:30N 49°29' W 000°20'1 1.8
2020-Mar-18 02:00N 49°29' W 000°21'2 1.8
2020-Mar-18 01:00N 49°30' W 000°23'11 2.5
2020-Mar-17 20:30N 49°36' W 000°38'11 4.5
2020-Mar-17 18:00N 49°41' W 000°54'7 4.5
2020-Mar-17 16:30N 49°44' W 001°03'28 7.9
2020-Mar-17 13:00N 49°56' W 001°41'1 0.5
2020-Mar-17 10:29N 49°57' W 001°43'0 0.1
2020-Mar-17 09:26N 49°57' W 001°43'23 7.8
2020-Mar-17 06:30N 49°53' W 002°18'510.1
2020-Mar-17 06:00N 49°52' W 002°26'  
Track history (hours):
 
Tides and Currents Weather Stations Pressure Air Temp Water Temp Dewpoint Dewpoint Depression Visibility Wind Speed Wind Dir Waves Ship Positions

Oceanographic research ship Alkor (Germany)

Ship's website: http://www.briese.de/

Detailed information on ship capabilities available from University of Delaware's Ocean Information Center.

Last reported at 2020-Mar-27 05:59 UTC. Time now 2020-Mar-29 16:02 UTC.
Position N 54°20' E 010°09'.

Length 55 m; draft 4.2 m.

Type: Ship. MMSI: 211216512.

Date/timePositionNaut miles runAvg speedWind from/ knotsBaromVisibWave heightAir tempDewpointWater temp
2020-Mar-27 05:59N 54°20' E 010°09'0 0.0
2020-Mar-27 03:29N 54°20' E 010°09'0 0.0
2020-Mar-26 21:29N 54°20' E 010°09'0 0.0
2020-Mar-26 20:59N 54°20' E 010°09'0 0.0
2020-Mar-26 17:53N 54°20' E 010°09'0 0.0
2020-Mar-26 17:26N 54°20' E 010°09'6 2.3
2020-Mar-26 15:00N 54°21' E 009°59'11 7.3
2020-Mar-26 13:31N 54°18' E 009°41'14 5.6
2020-Mar-26 11:01N 54°09' E 009°22'8 8.3
2020-Mar-26 10:00N 54°01' E 009°18'4 8.2
2020-Mar-26 09:31N 53°58' E 009°15'4 2.4
2020-Mar-26 08:01N 53°55' E 009°11'2 3.9
2020-Mar-26 07:30N 53°54' E 009°09'2 3.2
2020-Mar-26 07:00N 53°53' E 009°06'4 7.1
2020-Mar-26 06:31N 53°51' E 009°01'3 6.9
2020-Mar-26 06:01N 53°51' E 008°55'3 6.9
2020-Mar-26 05:30N 53°50' E 008°49'7 7.3
2020-Mar-26 04:30N 53°55' E 008°40'8 8.4
2020-Mar-26 03:31N 53°59' E 008°27'15 3.4
2020-Mar-25 23:01N 53°48' E 008°08'7 2.8
2020-Mar-25 20:30N 53°43' E 008°16'5010.0
2020-Mar-25 15:31N 53°44' E 006°52'13 4.7
2020-Mar-25 12:41N 53°33' E 006°41'33 3.0
2020-Mar-25 01:30N 53°59' E 007°16'4 8.3
2020-Mar-25 01:00N 53°60' E 007°23'4 8.3
2020-Mar-25 00:30N 54°01' E 007°29'12 8.1
2020-Mar-24 23:00N 54°02' E 007°50'11 7.4
2020-Mar-24 21:30N 54°01' E 008°09'6 3.1
2020-Mar-24 19:43N 54°03' E 008°18'0 2.3
2020-Mar-24 19:30N 54°03' E 008°17'1 0.3
2020-Mar-24 15:27N 54°04' E 008°18'5 3.5
2020-Mar-24 14:00N 54°00' E 008°22'510.6
2020-Mar-24 13:31N 53°59' E 008°31'1 1.8
2020-Mar-24 13:00N 53°59' E 008°29'15 3.3
2020-Mar-24 08:30N 54°05' E 008°06'1 1.3
2020-Mar-24 08:00N 54°05' E 008°05'0 0.2
2020-Mar-24 07:30N 54°05' E 008°05'5 2.6
2020-Mar-24 05:30N 54°05' E 008°14'36 2.2
2020-Mar-23 13:30N 53°53' E 009°11'4 7.8
2020-Mar-23 13:00N 53°52' E 009°17'1 0.6
2020-Mar-23 11:30N 53°52' E 009°16'0 0.8
2020-Mar-23 11:00N 53°52' E 009°16'0 0.2
2020-Mar-23 09:30N 53°52' E 009°17'15 9.7
2020-Mar-23 08:00N 53°50' E 008°52'5 2.1
2020-Mar-23 05:29N 53°51' E 008°43'0 0.0
2020-Mar-23 04:29N 53°51' E 008°43'0 0.0
2020-Mar-23 02:29N 53°51' E 008°43'0 0.0
2020-Mar-23 01:29N 53°51' E 008°43'0 0.0
2020-Mar-22 23:59N 53°51' E 008°43'0 0.0
2020-Mar-22 22:29N 53°51' E 008°43'0 0.0
2020-Mar-22 21:59N 53°51' E 008°43'0 0.0
2020-Mar-22 19:59N 53°51' E 008°43'0 0.0
2020-Mar-22 19:28N 53°51' E 008°43'0 0.0
2020-Mar-22 18:29N 53°51' E 008°43'0 0.0
2020-Mar-22 17:28N 53°51' E 008°43'0 0.0
2020-Mar-22 15:58N 53°51' E 008°43'0 0.0
2020-Mar-22 11:58N 53°51' E 008°43'0 0.0
2020-Mar-22 08:29N 53°51' E 008°43'0 0.0
2020-Mar-22 05:58N 53°51' E 008°43'0 0.0
2020-Mar-22 04:58N 53°51' E 008°43'0 0.0
2020-Mar-22 03:28N 53°51' E 008°43'0 0.0
2020-Mar-22 02:28N 53°51' E 008°43'0 0.0
2020-Mar-21 23:29N 53°51' E 008°43'0 0.0
2020-Mar-21 22:28N 53°51' E 008°43'0 0.0
2020-Mar-21 20:28N 53°51' E 008°43'0 0.0
2020-Mar-21 19:28N 53°51' E 008°43'0 0.0
2020-Mar-21 17:58N 53°51' E 008°43'0 0.0
2020-Mar-21 17:28N 53°51' E 008°43'0 0.0
2020-Mar-21 16:28N 53°51' E 008°43'1 0.1
2020-Mar-21 09:24N 53°52' E 008°43'48 7.5
2020-Mar-21 03:00N 53°52' E 007°21'3 6.0
2020-Mar-21 02:30N 53°51' E 007°16'3 5.6
2020-Mar-21 01:59N 53°51' E 007°11'3 5.6
2020-Mar-21 01:30N 53°50' E 007°07'3 5.5
2020-Mar-21 01:00N 53°49' E 007°03'5 5.5
2020-Mar-21 00:00N 53°48' E 006°54'5 5.5
2020-Mar-20 23:00N 53°47' E 006°45'62 4.3
2020-Mar-20 08:40N 53°29' E 005°05'211.0
2020-Mar-20 08:26N 53°28' E 005°01'6511.4
2020-Mar-20 02:43N 52°39' E 003°50'712.2
2020-Mar-20 02:10N 52°35' E 003°40'2712.4
2020-Mar-19 23:57N 52°08' E 003°27'1212.8
2020-Mar-19 23:00N 51°56' E 003°24'1112.7
2020-Mar-19 22:10N 51°47' E 003°17'21 9.7
2020-Mar-19 19:59N 51°28' E 003°00'1 2.1
2020-Mar-19 19:30N 51°27' E 003°01'1 0.6
2020-Mar-19 18:30N 51°27' E 003°01'1 0.4
2020-Mar-19 16:29N 51°26' E 002°60'15 7.0
2020-Mar-19 14:25N 51°22' E 002°37'511.4
2020-Mar-19 13:59N 51°22' E 002°30'511.5
2020-Mar-19 13:30N 51°20' E 002°21'28 7.9
2020-Mar-19 10:00N 51°32' E 001°42'1 2.0
2020-Mar-19 09:30N 51°32' E 001°41'2 2.0
2020-Mar-19 08:30N 51°30' E 001°41'2 0.8
2020-Mar-19 06:30N 51°29' E 001°43'1111.2
2020-Mar-19 05:30N 51°25' E 002°00'611.5
2020-Mar-19 05:00N 51°23' E 002°08'5 8.6
2020-Mar-19 04:28N 51°18' E 002°07'1010.1
2020-Mar-19 03:30N 51°12' E 001°56'1010.1
2020-Mar-19 02:30N 51°05' E 001°43'14 9.2
2020-Mar-19 01:00N 50°54' E 001°30'11 9.8
2020-Mar-18 23:51N 50°43' E 001°25'38 9.9
2020-Mar-18 19:59N 50°23' E 000°34'1710.6
2020-Mar-18 18:24N 50°18' E 000°09'5010.3
2020-Mar-18 13:30N 49°29' W 000°12'7 7.0
2020-Mar-18 12:30N 49°24' W 000°04'0 0.2
2020-Mar-18 12:00N 49°24' W 000°04'0 0.2
2020-Mar-18 10:00N 49°24' W 000°05'1 1.1
2020-Mar-18 09:30N 49°24' W 000°06'1 1.4
2020-Mar-18 09:00N 49°24' W 000°05'0 0.0
2020-Mar-18 08:30N 49°24' W 000°05'9 1.9
2020-Mar-18 03:30N 49°28' W 000°17'2 1.6
2020-Mar-18 02:30N 49°29' W 000°20'1 1.8
2020-Mar-18 02:00N 49°29' W 000°21'2 1.8
2020-Mar-18 01:00N 49°30' W 000°23'11 2.5
2020-Mar-17 20:30N 49°36' W 000°38'11 4.5
2020-Mar-17 18:00N 49°41' W 000°54'7 4.5
2020-Mar-17 16:30N 49°44' W 001°03'28 7.9
2020-Mar-17 13:00N 49°56' W 001°41'1 0.5
2020-Mar-17 10:29N 49°57' W 001°43'0 0.1
2020-Mar-17 09:26N 49°57' W 001°43'23 7.8
2020-Mar-17 06:30N 49°53' W 002°18'510.1
2020-Mar-17 06:00N 49°52' W 002°26'  

Dump ship's entire track history